sensor_id;sensor_type;location;lat;lon;timestamp;P1;durP1;ratioP1;P2;durP2;ratioP2
17947;SDS011;9099;47.958;11.366;2022-08-23T00:02:16;2.20;;;2.10;;
17947;SDS011;9099;47.958;11.366;2022-08-23T00:04:43;2.10;;;2.00;;
17947;SDS011;9099;47.958;11.366;2022-08-23T00:07:11;1.98;;;1.88;;
17947;SDS011;9099;47.958;11.366;2022-08-23T00:09:40;2.22;;;2.00;;
17947;SDS011;9099;47.958;11.366;2022-08-23T00:12:09;2.00;;;1.90;;
17947;SDS011;9099;47.958;11.366;2022-08-23T00:14:39;2.03;;;1.92;;
17947;SDS011;9099;47.958;11.366;2022-08-23T00:17:08;1.95;;;1.85;;
17947;SDS011;9099;47.958;11.366;2022-08-23T00:19:38;2.17;;;2.08;;
17947;SDS011;9099;47.958;11.366;2022-08-23T00:22:05;2.05;;;1.95;;
17947;SDS011;9099;47.958;11.366;2022-08-23T00:24:34;2.40;;;2.20;;
17947;SDS011;9099;47.958;11.366;2022-08-23T00:27:03;2.80;;;2.30;;
17947;SDS011;9099;47.958;11.366;2022-08-23T00:29:32;2.47;;;2.30;;
17947;SDS011;9099;47.958;11.366;2022-08-23T00:32:01;2.20;;;2.00;;
17947;SDS011;9099;47.958;11.366;2022-08-23T00:34:29;2.47;;;2.28;;
17947;SDS011;9099;47.958;11.366;2022-08-23T00:36:57;2.00;;;1.90;;
17947;SDS011;9099;47.958;11.366;2022-08-23T00:39:24;2.72;;;2.33;;
17947;SDS011;9099;47.958;11.366;2022-08-23T00:41:52;2.45;;;2.33;;
17947;SDS011;9099;47.958;11.366;2022-08-23T00:44:26;2.38;;;2.17;;
17947;SDS011;9099;47.958;11.366;2022-08-23T00:47:13;2.75;;;2.55;;
17947;SDS011;9099;47.958;11.366;2022-08-23T00:50:03;2.40;;;2.25;;
17947;SDS011;9099;47.958;11.366;2022-08-23T00:52:41;2.60;;;2.40;;
17947;SDS011;9099;47.958;11.366;2022-08-23T00:55:14;2.65;;;2.42;;
17947;SDS011;9099;47.958;11.366;2022-08-23T00:57:42;2.88;;;2.67;;
17947;SDS011;9099;47.958;11.366;2022-08-23T01:00:10;2.47;;;2.20;;
17947;SDS011;9099;47.958;11.366;2022-08-23T01:02:48;2.10;;;1.90;;
17947;SDS011;9099;47.958;11.366;2022-08-23T01:05:17;2.17;;;2.08;;
17947;SDS011;9099;47.958;11.366;2022-08-23T01:07:47;2.70;;;2.47;;
17947;SDS011;9099;47.958;11.366;2022-08-23T01:10:21;2.60;;;2.40;;
17947;SDS011;9099;47.958;11.366;2022-08-23T01:12:53;4.30;;;2.58;;
17947;SDS011;9099;47.958;11.366;2022-08-23T01:15:24;2.63;;;2.42;;
17947;SDS011;9099;47.958;11.366;2022-08-23T01:17:56;2.42;;;2.20;;
17947;SDS011;9099;47.958;11.366;2022-08-23T01:20:27;2.97;;;2.20;;
17947;SDS011;9099;47.958;11.366;2022-08-23T01:23:05;2.40;;;2.30;;
17947;SDS011;9099;47.958;11.366;2022-08-23T01:25:40;2.20;;;2.10;;
17947;SDS011;9099;47.958;11.366;2022-08-23T01:28:07;2.75;;;2.55;;
17947;SDS011;9099;47.958;11.366;2022-08-23T01:30:34;3.08;;;2.28;;
17947;SDS011;9099;47.958;11.366;2022-08-23T01:33:03;2.42;;;2.28;;
17947;SDS011;9099;47.958;11.366;2022-08-23T01:35:33;2.40;;;2.13;;
17947;SDS011;9099;47.958;11.366;2022-08-23T01:38:03;2.30;;;2.17;;
17947;SDS011;9099;47.958;11.366;2022-08-23T01:40:31;2.60;;;2.40;;
17947;SDS011;9099;47.958;11.366;2022-08-23T01:42:59;2.60;;;2.40;;
17947;SDS011;9099;47.958;11.366;2022-08-23T01:45:27;3.55;;;2.50;;
17947;SDS011;9099;47.958;11.366;2022-08-23T01:47:55;2.53;;;2.33;;
17947;SDS011;9099;47.958;11.366;2022-08-23T01:50:23;2.10;;;2.00;;
17947;SDS011;9099;47.958;11.366;2022-08-23T02:26:56;2.22;;;2.03;;
17947;SDS011;9099;47.958;11.366;2022-08-23T02:29:50;2.55;;;2.40;;
17947;SDS011;9099;47.958;11.366;2022-08-23T02:32:18;3.45;;;2.75;;
17947;SDS011;9099;47.958;11.366;2022-08-23T02:34:45;2.28;;;2.17;;
17947;SDS011;9099;47.958;11.366;2022-08-23T02:37:13;2.20;;;2.10;;
17947;SDS011;9099;47.958;11.366;2022-08-23T02:39:40;2.92;;;2.40;;
17947;SDS011;9099;47.958;11.366;2022-08-23T02:42:09;2.92;;;2.55;;
17947;SDS011;9099;47.958;11.366;2022-08-23T02:44:38;2.53;;;2.33;;
17947;SDS011;9099;47.958;11.366;2022-08-23T02:47:05;2.80;;;2.60;;
17947;SDS011;9099;47.958;11.366;2022-08-23T02:49:33;2.70;;;2.60;;
17947;SDS011;9099;47.958;11.366;2022-08-23T02:52:00;2.28;;;2.17;;
17947;SDS011;9099;47.958;11.366;2022-08-23T02:54:28;2.70;;;2.50;;
17947;SDS011;9099;47.958;11.366;2022-08-23T02:56:55;2.65;;;2.42;;
17947;SDS011;9099;47.958;11.366;2022-08-23T02:59:24;3.08;;;2.60;;
17947;SDS011;9099;47.958;11.366;2022-08-23T03:01:51;2.70;;;2.50;;
17947;SDS011;9099;47.958;11.366;2022-08-23T03:04:18;2.60;;;2.40;;
17947;SDS011;9099;47.958;11.366;2022-08-23T03:06:45;2.80;;;2.70;;
17947;SDS011;9099;47.958;11.366;2022-08-23T03:09:12;2.42;;;2.22;;
17947;SDS011;9099;47.958;11.366;2022-08-23T03:11:42;2.38;;;2.28;;
17947;SDS011;9099;47.958;11.366;2022-08-23T03:14:10;2.60;;;2.40;;
17947;SDS011;9099;47.958;11.366;2022-08-23T03:16:38;2.70;;;2.50;;
17947;SDS011;9099;47.958;11.366;2022-08-23T03:19:06;2.80;;;2.60;;
17947;SDS011;9099;47.958;11.366;2022-08-23T03:21:33;2.38;;;2.28;;
17947;SDS011;9099;47.958;11.366;2022-08-23T03:24:00;2.47;;;2.38;;
17947;SDS011;9099;47.958;11.366;2022-08-23T03:26:28;2.72;;;2.47;;
17947;SDS011;9099;47.958;11.366;2022-08-23T03:28:55;3.05;;;2.47;;
17947;SDS011;9099;47.958;11.366;2022-08-23T03:31:22;3.13;;;2.92;;
17947;SDS011;9099;47.958;11.366;2022-08-23T03:33:50;2.60;;;2.40;;
17947;SDS011;9099;47.958;11.366;2022-08-23T03:36:18;2.30;;;2.17;;
17947;SDS011;9099;47.958;11.366;2022-08-23T03:39:05;2.58;;;2.38;;
17947;SDS011;9099;47.958;11.366;2022-08-23T03:41:32;2.50;;;2.30;;
17947;SDS011;9099;47.958;11.366;2022-08-23T03:43:59;2.70;;;2.50;;
17947;SDS011;9099;47.958;11.366;2022-08-23T03:46:26;2.58;;;2.40;;
17947;SDS011;9099;47.958;11.366;2022-08-23T03:48:55;2.80;;;2.60;;
17947;SDS011;9099;47.958;11.366;2022-08-23T03:51:24;3.40;;;2.92;;
17947;SDS011;9099;47.958;11.366;2022-08-23T03:53:52;2.95;;;2.20;;
17947;SDS011;9099;47.958;11.366;2022-08-23T03:56:20;3.00;;;2.70;;
17947;SDS011;9099;47.958;11.366;2022-08-23T03:58:47;2.25;;;2.15;;
17947;SDS011;9099;47.958;11.366;2022-08-23T04:01:15;2.55;;;2.35;;
17947;SDS011;9099;47.958;11.366;2022-08-23T04:03:42;2.72;;;2.55;;
17947;SDS011;9099;47.958;11.366;2022-08-23T04:06:10;2.58;;;2.47;;
17947;SDS011;9099;47.958;11.366;2022-08-23T04:08:37;2.72;;;2.53;;
17947;SDS011;9099;47.958;11.366;2022-08-23T04:11:04;2.70;;;2.50;;
17947;SDS011;9099;47.958;11.366;2022-08-23T04:13:32;2.97;;;2.40;;
17947;SDS011;9099;47.958;11.366;2022-08-23T04:15:58;2.85;;;2.60;;
17947;SDS011;9099;47.958;11.366;2022-08-23T04:18:27;2.85;;;2.65;;
17947;SDS011;9099;47.958;11.366;2022-08-23T04:20:55;2.72;;;2.53;;
17947;SDS011;9099;47.958;11.366;2022-08-23T04:23:25;3.08;;;2.72;;
17947;SDS011;9099;47.958;11.366;2022-08-23T04:25:52;2.70;;;2.50;;
17947;SDS011;9099;47.958;11.366;2022-08-23T04:28:19;2.92;;;2.72;;
17947;SDS011;9099;47.958;11.366;2022-08-23T04:30:46;2.95;;;2.17;;
17947;SDS011;9099;47.958;11.366;2022-08-23T04:33:14;3.60;;;2.65;;
17947;SDS011;9099;47.958;11.366;2022-08-23T04:35:43;3.30;;;3.00;;
17947;SDS011;9099;47.958;11.366;2022-08-23T04:38:10;3.03;;;2.72;;
17947;SDS011;9099;47.958;11.366;2022-08-23T04:40:40;3.50;;;3.20;;
17947;SDS011;9099;47.958;11.366;2022-08-23T04:43:25;2.97;;;2.78;;
17947;SDS011;9099;47.958;11.366;2022-08-23T04:45:52;3.10;;;2.72;;
17947;SDS011;9099;47.958;11.366;2022-08-23T04:48:19;3.13;;;2.92;;
17947;SDS011;9099;47.958;11.366;2022-08-23T04:50:46;2.35;;;2.25;;
17947;SDS011;9099;47.958;11.366;2022-08-23T04:53:13;3.05;;;2.53;;
17947;SDS011;9099;47.958;11.366;2022-08-23T04:55:41;4.28;;;3.15;;
17947;SDS011;9099;47.958;11.366;2022-08-23T04:58:08;3.35;;;2.83;;
17947;SDS011;9099;47.958;11.366;2022-08-23T05:00:35;3.20;;;3.00;;
17947;SDS011;9099;47.958;11.366;2022-08-23T05:03:02;3.30;;;2.78;;
17947;SDS011;9099;47.958;11.366;2022-08-23T05:05:29;2.95;;;2.75;;
17947;SDS011;9099;47.958;11.366;2022-08-23T05:07:57;2.95;;;2.75;;
17947;SDS011;9099;47.958;11.366;2022-08-23T05:10:24;3.22;;;2.92;;
17947;SDS011;9099;47.958;11.366;2022-08-23T05:12:52;2.97;;;2.78;;
17947;SDS011;9099;47.958;11.366;2022-08-23T05:15:19;2.78;;;2.33;;
17947;SDS011;9099;47.958;11.366;2022-08-23T05:17:46;3.00;;;2.67;;
17947;SDS011;9099;47.958;11.366;2022-08-23T05:20:13;2.47;;;2.35;;
17947;SDS011;9099;47.958;11.366;2022-08-23T05:22:40;3.08;;;2.80;;
17947;SDS011;9099;47.958;11.366;2022-08-23T05:25:08;2.70;;;2.50;;
17947;SDS011;9099;47.958;11.366;2022-08-23T05:27:35;2.50;;;2.30;;
17947;SDS011;9099;47.958;11.366;2022-08-23T05:30:05;2.33;;;2.20;;
17947;SDS011;9099;47.958;11.366;2022-08-23T05:32:33;2.33;;;2.13;;
17947;SDS011;9099;47.958;11.366;2022-08-23T05:34:59;4.97;;;2.58;;
17947;SDS011;9099;47.958;11.366;2022-08-23T05:37:26;2.00;;;1.90;;
17947;SDS011;9099;47.958;11.366;2022-08-23T05:39:54;2.05;;;1.95;;
17947;SDS011;9099;47.958;11.366;2022-08-23T05:42:21;3.28;;;2.15;;
17947;SDS011;9099;47.958;11.366;2022-08-23T05:44:48;2.08;;;1.90;;
17947;SDS011;9099;47.958;11.366;2022-08-23T05:47:17;2.03;;;1.92;;
17947;SDS011;9099;47.958;11.366;2022-08-23T05:49:44;2.92;;;2.45;;
17947;SDS011;9099;47.958;11.366;2022-08-23T05:52:12;3.47;;;2.13;;
17947;SDS011;9099;47.958;11.366;2022-08-23T05:54:39;7.13;;;2.83;;
17947;SDS011;9099;47.958;11.366;2022-08-23T05:57:07;3.80;;;2.65;;
17947;SDS011;9099;47.958;11.366;2022-08-23T05:59:34;6.80;;;2.50;;
17947;SDS011;9099;47.958;11.366;2022-08-23T06:02:01;4.95;;;2.90;;
17947;SDS011;9099;47.958;11.366;2022-08-23T06:04:29;3.60;;;2.63;;
17947;SDS011;9099;47.958;11.366;2022-08-23T06:06:57;5.00;;;2.90;;
17947;SDS011;9099;47.958;11.366;2022-08-23T06:09:24;5.28;;;2.78;;
17947;SDS011;9099;47.958;11.366;2022-08-23T06:11:51;3.13;;;2.00;;
17947;SDS011;9099;47.958;11.366;2022-08-23T06:14:19;5.03;;;2.38;;
17947;SDS011;9099;47.958;11.366;2022-08-23T06:16:47;7.10;;;2.40;;
17947;SDS011;9099;47.958;11.366;2022-08-23T06:19:14;7.85;;;2.47;;
17947;SDS011;9099;47.958;11.366;2022-08-23T06:21:43;4.25;;;2.58;;
17947;SDS011;9099;47.958;11.366;2022-08-23T06:24:10;4.93;;;2.38;;
17947;SDS011;9099;47.958;11.366;2022-08-23T06:26:38;3.97;;;2.22;;
17947;SDS011;9099;47.958;11.366;2022-08-23T06:29:07;6.88;;;2.60;;
17947;SDS011;9099;47.958;11.366;2022-08-23T06:31:38;10.65;;;2.35;;
17947;SDS011;9099;47.958;11.366;2022-08-23T06:34:13;8.05;;;2.78;;
17947;SDS011;9099;47.958;11.366;2022-08-23T06:36:44;7.10;;;2.38;;
17947;SDS011;9099;47.958;11.366;2022-08-23T06:39:13;6.10;;;2.40;;
17947;SDS011;9099;47.958;11.366;2022-08-23T06:41:42;5.68;;;2.50;;
17947;SDS011;9099;47.958;11.366;2022-08-23T06:44:09;2.75;;;2.10;;
17947;SDS011;9099;47.958;11.366;2022-08-23T06:46:37;2.30;;;2.03;;
17947;SDS011;9099;47.958;11.366;2022-08-23T06:49:04;3.20;;;2.28;;
17947;SDS011;9099;47.958;11.366;2022-08-23T06:51:32;4.93;;;2.10;;
17947;SDS011;9099;47.958;11.366;2022-08-23T06:54:03;1.95;;;1.80;;
17947;SDS011;9099;47.958;11.366;2022-08-23T06:56:32;5.75;;;2.03;;
17947;SDS011;9099;47.958;11.366;2022-08-23T06:59:00;2.13;;;1.70;;
17947;SDS011;9099;47.958;11.366;2022-08-23T07:01:31;2.95;;;1.95;;
17947;SDS011;9099;47.958;11.366;2022-08-23T07:04:02;3.67;;;2.22;;
17947;SDS011;9099;47.958;11.366;2022-08-23T07:06:30;2.17;;;1.98;;
17947;SDS011;9099;47.958;11.366;2022-08-23T07:08:58;2.20;;;2.00;;
17947;SDS011;9099;47.958;11.366;2022-08-23T07:11:27;2.13;;;2.03;;
17947;SDS011;9099;47.958;11.366;2022-08-23T07:13:55;2.30;;;2.10;;
17947;SDS011;9099;47.958;11.366;2022-08-23T07:16:23;5.13;;;2.20;;
17947;SDS011;9099;47.958;11.366;2022-08-23T07:18:50;2.63;;;2.42;;
17947;SDS011;9099;47.958;11.366;2022-08-23T07:21:19;2.03;;;1.83;;
17947;SDS011;9099;47.958;11.366;2022-08-23T07:23:46;4.05;;;2.38;;
17947;SDS011;9099;47.958;11.366;2022-08-23T07:26:14;5.03;;;2.53;;
17947;SDS011;9099;47.958;11.366;2022-08-23T07:28:43;2.38;;;2.13;;
17947;SDS011;9099;47.958;11.366;2022-08-23T07:31:11;2.30;;;2.10;;
17947;SDS011;9099;47.958;11.366;2022-08-23T07:33:41;4.50;;;2.03;;
17947;SDS011;9099;47.958;11.366;2022-08-23T07:36:09;2.20;;;2.05;;
17947;SDS011;9099;47.958;11.366;2022-08-23T07:38:40;2.28;;;2.08;;
17947;SDS011;9099;47.958;11.366;2022-08-23T07:41:07;2.05;;;1.95;;
17947;SDS011;9099;47.958;11.366;2022-08-23T07:43:35;3.53;;;1.70;;
17947;SDS011;9099;47.958;11.366;2022-08-23T07:46:04;2.40;;;2.22;;
17947;SDS011;9099;47.958;11.366;2022-08-23T07:48:32;1.88;;;1.77;;
17947;SDS011;9099;47.958;11.366;2022-08-23T07:51:01;2.10;;;1.90;;
17947;SDS011;9099;47.958;11.366;2022-08-23T07:53:30;2.08;;;1.95;;
17947;SDS011;9099;47.958;11.366;2022-08-23T07:55:58;2.40;;;1.90;;
17947;SDS011;9099;47.958;11.366;2022-08-23T07:58:28;2.28;;;2.17;;
17947;SDS011;9099;47.958;11.366;2022-08-23T08:00:55;2.00;;;1.90;;
17947;SDS011;9099;47.958;11.366;2022-08-23T08:03:23;2.08;;;1.98;;
17947;SDS011;9099;47.958;11.366;2022-08-23T08:05:50;2.20;;;2.10;;
17947;SDS011;9099;47.958;11.366;2022-08-23T08:08:21;2.08;;;1.98;;
17947;SDS011;9099;47.958;11.366;2022-08-23T08:10:48;2.53;;;2.33;;
17947;SDS011;9099;47.958;11.366;2022-08-23T08:13:19;2.08;;;1.90;;
17947;SDS011;9099;47.958;11.366;2022-08-23T08:15:46;5.97;;;2.10;;
17947;SDS011;9099;47.958;11.366;2022-08-23T08:18:13;1.90;;;1.73;;
17947;SDS011;9099;47.958;11.366;2022-08-23T08:20:43;2.20;;;1.98;;
17947;SDS011;9099;47.958;11.366;2022-08-23T08:23:10;2.05;;;1.88;;
17947;SDS011;9099;47.958;11.366;2022-08-23T08:25:37;1.80;;;1.70;;
17947;SDS011;9099;47.958;11.366;2022-08-23T08:28:03;2.28;;;1.88;;
17947;SDS011;9099;47.958;11.366;2022-08-23T08:30:30;2.00;;;1.90;;
17947;SDS011;9099;47.958;11.366;2022-08-23T08:32:57;2.17;;;1.90;;
17947;SDS011;9099;47.958;11.366;2022-08-23T08:35:24;2.10;;;1.90;;
17947;SDS011;9099;47.958;11.366;2022-08-23T08:37:53;2.45;;;1.70;;
17947;SDS011;9099;47.958;11.366;2022-08-23T08:40:23;1.83;;;1.73;;
17947;SDS011;9099;47.958;11.366;2022-08-23T08:43:02;1.77;;;1.67;;
17947;SDS011;9099;47.958;11.366;2022-08-23T08:45:44;1.52;;;1.42;;
17947;SDS011;9099;47.958;11.366;2022-08-23T08:48:21;1.48;;;1.42;;
17947;SDS011;9099;47.958;11.366;2022-08-23T08:50:50;2.08;;;1.70;;
17947;SDS011;9099;47.958;11.366;2022-08-23T08:53:24;1.60;;;1.50;;
17947;SDS011;9099;47.958;11.366;2022-08-23T08:55:54;2.00;;;1.90;;
17947;SDS011;9099;47.958;11.366;2022-08-23T08:58:25;3.05;;;1.85;;
17947;SDS011;9099;47.958;11.366;2022-08-23T09:00:58;1.90;;;1.80;;
17947;SDS011;9099;47.958;11.366;2022-08-23T09:03:26;2.92;;;1.80;;
17947;SDS011;9099;47.958;11.366;2022-08-23T09:05:59;1.90;;;1.80;;
17947;SDS011;9099;47.958;11.366;2022-08-23T09:08:38;2.55;;;1.95;;
17947;SDS011;9099;47.958;11.366;2022-08-23T09:11:17;2.67;;;1.75;;
17947;SDS011;9099;47.958;11.366;2022-08-23T09:16:50;2.88;;;1.80;;
17947;SDS011;9099;47.958;11.366;2022-08-23T09:19:19;2.72;;;1.65;;
17947;SDS011;9099;47.958;11.366;2022-08-23T09:21:48;1.70;;;1.60;;
17947;SDS011;9099;47.958;11.366;2022-08-23T09:24:23;1.50;;;1.40;;
17947;SDS011;9099;47.958;11.366;2022-08-23T09:26:50;1.58;;;1.48;;
17947;SDS011;9099;47.958;11.366;2022-08-23T09:29:20;1.60;;;1.52;;
17947;SDS011;9099;47.958;11.366;2022-08-23T09:31:49;1.50;;;1.40;;
17947;SDS011;9099;47.958;11.366;2022-08-23T09:34:18;1.25;;;1.25;;
17947;SDS011;9099;47.958;11.366;2022-08-23T09:36:48;1.48;;;1.38;;
17947;SDS011;9099;47.958;11.366;2022-08-23T09:39:27;1.45;;;1.30;;
17947;SDS011;9099;47.958;11.366;2022-08-23T09:41:55;2.28;;;1.50;;
17947;SDS011;9099;47.958;11.366;2022-08-23T09:44:31;1.17;;;1.17;;
17947;SDS011;9099;47.958;11.366;2022-08-23T09:47:06;1.52;;;1.42;;
17947;SDS011;9099;47.958;11.366;2022-08-23T09:49:35;1.75;;;1.55;;
17947;SDS011;9099;47.958;11.366;2022-08-23T09:52:10;1.77;;;1.67;;
17947;SDS011;9099;47.958;11.366;2022-08-23T09:54:44;1.50;;;1.40;;
17947;SDS011;9099;47.958;11.366;2022-08-23T09:57:21;1.88;;;1.67;;
17947;SDS011;9099;47.958;11.366;2022-08-23T09:59:51;1.58;;;1.48;;
17947;SDS011;9099;47.958;11.366;2022-08-23T10:02:22;2.38;;;1.70;;
17947;SDS011;9099;47.958;11.366;2022-08-23T10:04:56;1.50;;;1.40;;
17947;SDS011;9099;47.958;11.366;2022-08-23T10:07:27;1.70;;;1.60;;
17947;SDS011;9099;47.958;11.366;2022-08-23T10:10:13;1.65;;;1.55;;
17947;SDS011;9099;47.958;11.366;2022-08-23T10:12:47;1.80;;;1.70;;
17947;SDS011;9099;47.958;11.366;2022-08-23T10:15:15;2.65;;;1.80;;
17947;SDS011;9099;47.958;11.366;2022-08-23T10:17:45;2.35;;;1.80;;
17947;SDS011;9099;47.958;11.366;2022-08-23T10:20:21;2.20;;;1.67;;
17947;SDS011;9099;47.958;11.366;2022-08-23T10:22:57;1.75;;;1.65;;
17947;SDS011;9099;47.958;11.366;2022-08-23T10:25:36;1.70;;;1.60;;
17947;SDS011;9099;47.958;11.366;2022-08-23T10:28:10;1.90;;;1.70;;
17947;SDS011;9099;47.958;11.366;2022-08-23T10:31:01;1.95;;;1.50;;
17947;SDS011;9099;47.958;11.366;2022-08-23T10:33:39;2.13;;;1.75;;
17947;SDS011;9099;47.958;11.366;2022-08-23T10:36:12;2.65;;;1.60;;
17947;SDS011;9099;47.958;11.366;2022-08-23T10:38:43;2.25;;;1.88;;
17947;SDS011;9099;47.958;11.366;2022-08-23T10:41:17;1.80;;;1.60;;
17947;SDS011;9099;47.958;11.366;2022-08-23T10:43:59;2.08;;;1.70;;
17947;SDS011;9099;47.958;11.366;2022-08-23T10:46:38;3.25;;;1.55;;
17947;SDS011;9099;47.958;11.366;2022-08-23T10:49:10;1.60;;;1.50;;
17947;SDS011;9099;47.958;11.366;2022-08-23T10:51:41;2.70;;;1.70;;
17947;SDS011;9099;47.958;11.366;2022-08-23T10:54:12;4.03;;;1.30;;
17947;SDS011;9099;47.958;11.366;2022-08-23T10:56:44;2.30;;;1.70;;
17947;SDS011;9099;47.958;11.366;2022-08-23T10:59:12;1.60;;;1.50;;
17947;SDS011;9099;47.958;11.366;2022-08-23T11:01:45;1.85;;;1.42;;
17947;SDS011;9099;47.958;11.366;2022-08-23T11:04:19;1.65;;;1.35;;
17947;SDS011;9099;47.958;11.366;2022-08-23T11:06:52;1.67;;;1.58;;
17947;SDS011;9099;47.958;11.366;2022-08-23T11:09:29;1.63;;;1.45;;
17947;SDS011;9099;47.958;11.366;2022-08-23T11:12:16;1.92;;;1.70;;
17947;SDS011;9099;47.958;11.366;2022-08-23T11:14:47;1.60;;;1.50;;
17947;SDS011;9099;47.958;11.366;2022-08-23T11:17:28;1.58;;;1.40;;
17947;SDS011;9099;47.958;11.366;2022-08-23T11:20:00;1.75;;;1.65;;
17947;SDS011;9099;47.958;11.366;2022-08-23T11:22:32;1.67;;;1.58;;
17947;SDS011;9099;47.958;11.366;2022-08-23T11:30:56;1.85;;;1.60;;
17947;SDS011;9099;47.958;11.366;2022-08-23T11:33:44;2.08;;;1.40;;
17947;SDS011;9099;47.958;11.366;2022-08-23T11:36:15;1.70;;;1.38;;
17947;SDS011;9099;47.958;11.366;2022-08-23T11:41:35;1.90;;;1.25;;
17947;SDS011;9099;47.958;11.366;2022-08-23T11:44:26;1.30;;;1.20;;
17947;SDS011;9099;47.958;11.366;2022-08-23T11:47:02;1.85;;;1.50;;
17947;SDS011;9099;47.958;11.366;2022-08-23T11:52:37;1.48;;;1.38;;
17947;SDS011;9099;47.958;11.366;2022-08-23T11:55:45;1.80;;;1.20;;
17947;SDS011;9099;47.958;11.366;2022-08-23T11:58:29;3.70;;;1.55;;
17947;SDS011;9099;47.958;11.366;2022-08-23T12:01:17;1.35;;;1.20;;
17947;SDS011;9099;47.958;11.366;2022-08-23T12:03:56;2.28;;;1.50;;
17947;SDS011;9099;47.958;11.366;2022-08-23T12:06:37;1.25;;;1.25;;
17947;SDS011;9099;47.958;11.366;2022-08-23T12:09:11;1.58;;;1.48;;
17947;SDS011;9099;47.958;11.366;2022-08-23T12:12:08;2.17;;;1.40;;
17947;SDS011;9099;47.958;11.366;2022-08-23T12:14:48;3.58;;;1.30;;
17947;SDS011;9099;47.958;11.366;2022-08-23T12:20:23;2.92;;;1.50;;
17947;SDS011;9099;47.958;11.366;2022-08-23T12:23:09;2.75;;;1.40;;
17947;SDS011;9099;47.958;11.366;2022-08-23T12:25:40;1.42;;;1.33;;
17947;SDS011;9099;47.958;11.366;2022-08-23T12:28:24;1.50;;;1.15;;
17947;SDS011;9099;47.958;11.366;2022-08-23T12:31:00;2.10;;;1.35;;
17947;SDS011;9099;47.958;11.366;2022-08-23T12:33:42;1.50;;;1.40;;
17947;SDS011;9099;47.958;11.366;2022-08-23T12:36:20;1.25;;;1.20;;
17947;SDS011;9099;47.958;11.366;2022-08-23T12:38:55;1.40;;;1.30;;
17947;SDS011;9099;47.958;11.366;2022-08-23T12:41:26;1.60;;;1.50;;
17947;SDS011;9099;47.958;11.366;2022-08-23T12:43:56;1.90;;;1.40;;
17947;SDS011;9099;47.958;11.366;2022-08-23T12:46:32;2.58;;;1.40;;
17947;SDS011;9099;47.958;11.366;2022-08-23T12:49:01;1.58;;;1.48;;
17947;SDS011;9099;47.958;11.366;2022-08-23T12:51:30;1.40;;;1.30;;
17947;SDS011;9099;47.958;11.366;2022-08-23T12:53:57;1.40;;;1.30;;
17947;SDS011;9099;47.958;11.366;2022-08-23T12:56:37;1.60;;;1.50;;
17947;SDS011;9099;47.958;11.366;2022-08-23T12:59:04;1.65;;;1.55;;
17947;SDS011;9099;47.958;11.366;2022-08-23T13:01:38;1.38;;;1.38;;
17947;SDS011;9099;47.958;11.366;2022-08-23T13:04:07;1.65;;;1.55;;
17947;SDS011;9099;47.958;11.366;2022-08-23T13:06:40;2.45;;;1.60;;
17947;SDS011;9099;47.958;11.366;2022-08-23T13:09:13;2.67;;;1.40;;
17947;SDS011;9099;47.958;11.366;2022-08-23T13:11:44;1.40;;;1.30;;
17947;SDS011;9099;47.958;11.366;2022-08-23T13:14:22;1.52;;;1.42;;
17947;SDS011;9099;47.958;11.366;2022-08-23T13:16:53;1.58;;;1.48;;
17947;SDS011;9099;47.958;11.366;2022-08-23T13:19:23;2.15;;;1.40;;
17947;SDS011;9099;47.958;11.366;2022-08-23T13:24:35;2.10;;;1.42;;
17947;SDS011;9099;47.958;11.366;2022-08-23T13:27:10;1.50;;;1.40;;
17947;SDS011;9099;47.958;11.366;2022-08-23T13:29:47;1.45;;;1.35;;
17947;SDS011;9099;47.958;11.366;2022-08-23T13:32:27;1.67;;;1.58;;
17947;SDS011;9099;47.958;11.366;2022-08-23T13:37:50;2.78;;;1.40;;
17947;SDS011;9099;47.958;11.366;2022-08-23T13:40:21;1.48;;;1.30;;
17947;SDS011;9099;47.958;11.366;2022-08-23T13:42:51;2.60;;;1.73;;
17947;SDS011;9099;47.958;11.366;2022-08-23T13:45:25;1.75;;;1.48;;
17947;SDS011;9099;47.958;11.366;2022-08-23T13:47:55;1.40;;;1.30;;
17947;SDS011;9099;47.958;11.366;2022-08-23T13:50:26;1.73;;;1.30;;
17947;SDS011;9099;47.958;11.366;2022-08-23T13:52:54;2.80;;;1.35;;
17947;SDS011;9099;47.958;11.366;2022-08-23T13:55:21;1.40;;;1.30;;
17947;SDS011;9099;47.958;11.366;2022-08-23T13:57:49;1.60;;;1.50;;
17947;SDS011;9099;47.958;11.366;2022-08-23T14:00:17;1.42;;;1.30;;
17947;SDS011;9099;47.958;11.366;2022-08-23T14:02:44;1.63;;;1.40;;
17947;SDS011;9099;47.958;11.366;2022-08-23T14:05:15;2.30;;;1.27;;
17947;SDS011;9099;47.958;11.366;2022-08-23T14:07:44;1.45;;;1.23;;
17947;SDS011;9099;47.958;11.366;2022-08-23T14:10:12;1.90;;;1.30;;
17947;SDS011;9099;47.958;11.366;2022-08-23T14:12:39;1.55;;;1.45;;
17947;SDS011;9099;47.958;11.366;2022-08-23T14:15:10;2.35;;;1.48;;
17947;SDS011;9099;47.958;11.366;2022-08-23T14:17:39;1.40;;;1.25;;
17947;SDS011;9099;47.958;11.366;2022-08-23T14:20:08;1.10;;;1.05;;
17947;SDS011;9099;47.958;11.366;2022-08-23T14:22:38;2.83;;;1.23;;
17947;SDS011;9099;47.958;11.366;2022-08-23T14:25:06;1.35;;;1.25;;
17947;SDS011;9099;47.958;11.366;2022-08-23T14:27:34;1.40;;;1.30;;
17947;SDS011;9099;47.958;11.366;2022-08-23T14:30:04;1.45;;;1.35;;
17947;SDS011;9099;47.958;11.366;2022-08-23T14:32:32;1.58;;;1.10;;
17947;SDS011;9099;47.958;11.366;2022-08-23T14:34:59;1.95;;;1.30;;
17947;SDS011;9099;47.958;11.366;2022-08-23T14:37:26;1.98;;;1.77;;
17947;SDS011;9099;47.958;11.366;2022-08-23T14:39:54;1.90;;;1.30;;
17947;SDS011;9099;47.958;11.366;2022-08-23T14:42:22;2.30;;;1.38;;
17947;SDS011;9099;47.958;11.366;2022-08-23T14:44:49;1.30;;;1.20;;
17947;SDS011;9099;47.958;11.366;2022-08-23T14:47:16;1.50;;;1.38;;
17947;SDS011;9099;47.958;11.366;2022-08-23T14:49:43;1.38;;;1.27;;
17947;SDS011;9099;47.958;11.366;2022-08-23T14:52:11;1.40;;;1.30;;
17947;SDS011;9099;47.958;11.366;2022-08-23T14:54:40;2.15;;;1.20;;
17947;SDS011;9099;47.958;11.366;2022-08-23T14:57:08;2.17;;;1.40;;
17947;SDS011;9099;47.958;11.366;2022-08-23T14:59:35;1.50;;;1.40;;
17947;SDS011;9099;47.958;11.366;2022-08-23T15:02:03;1.45;;;1.35;;
17947;SDS011;9099;47.958;11.366;2022-08-23T15:04:31;1.42;;;1.38;;
17947;SDS011;9099;47.958;11.366;2022-08-23T15:06:58;1.88;;;1.30;;
17947;SDS011;9099;47.958;11.366;2022-08-23T15:09:25;1.23;;;1.23;;
17947;SDS011;9099;47.958;11.366;2022-08-23T15:11:52;1.50;;;1.40;;
17947;SDS011;9099;47.958;11.366;2022-08-23T15:14:21;1.35;;;1.25;;
17947;SDS011;9099;47.958;11.366;2022-08-23T15:16:47;1.55;;;1.45;;
17947;SDS011;9099;47.958;11.366;2022-08-23T15:19:14;2.05;;;1.20;;
17947;SDS011;9099;47.958;11.366;2022-08-23T15:21:41;1.45;;;1.17;;
17947;SDS011;9099;47.958;11.366;2022-08-23T15:24:08;1.58;;;1.30;;
17947;SDS011;9099;47.958;11.366;2022-08-23T15:26:35;1.77;;;1.48;;
17947;SDS011;9099;47.958;11.366;2022-08-23T15:29:02;1.40;;;1.30;;
17947;SDS011;9099;47.958;11.366;2022-08-23T15:31:31;2.40;;;1.50;;
17947;SDS011;9099;47.958;11.366;2022-08-23T15:33:58;1.50;;;1.40;;
17947;SDS011;9099;47.958;11.366;2022-08-23T15:36:25;2.42;;;1.70;;
17947;SDS011;9099;47.958;11.366;2022-08-23T15:38:53;1.50;;;1.30;;
17947;SDS011;9099;47.958;11.366;2022-08-23T15:41:20;1.38;;;1.27;;
17947;SDS011;9099;47.958;11.366;2022-08-23T15:43:47;1.73;;;1.40;;
17947;SDS011;9099;47.958;11.366;2022-08-23T15:46:15;1.40;;;1.30;;
17947;SDS011;9099;47.958;11.366;2022-08-23T15:48:46;1.83;;;1.40;;
17947;SDS011;9099;47.958;11.366;2022-08-23T15:51:18;2.05;;;1.50;;
17947;SDS011;9099;47.958;11.366;2022-08-23T15:53:45;1.50;;;1.10;;
17947;SDS011;9099;47.958;11.366;2022-08-23T15:56:13;2.55;;;1.23;;
17947;SDS011;9099;47.958;11.366;2022-08-23T15:58:43;1.63;;;1.33;;
17947;SDS011;9099;47.958;11.366;2022-08-23T16:01:11;1.42;;;1.30;;
17947;SDS011;9099;47.958;11.366;2022-08-23T16:03:38;2.58;;;1.33;;
17947;SDS011;9099;47.958;11.366;2022-08-23T16:06:10;1.40;;;1.30;;